createdAt,value
2019-03-04T00:03:02.580Z,10.14
2019-03-04T00:06:07.091Z,10.22
2019-03-04T00:09:12.279Z,10.21
2019-03-04T00:12:16.810Z,10.21
2019-03-04T00:15:23.543Z,10.13
2019-03-04T00:18:27.965Z,10.16
2019-03-04T00:21:32.434Z,10.29
2019-03-04T00:24:36.782Z,10.30
2019-03-04T00:27:41.358Z,10.36
2019-03-04T00:30:45.770Z,10.50
2019-03-04T00:33:50.381Z,10.35
2019-03-04T00:36:54.869Z,10.41
2019-03-04T00:39:59.518Z,10.40
2019-03-04T00:43:05.295Z,10.50
2019-03-04T00:46:09.798Z,10.50
2019-03-04T00:49:14.436Z,10.54
2019-03-04T00:52:18.958Z,10.53
2019-03-04T00:55:23.347Z,10.50
2019-03-04T00:58:28.146Z,10.65
2019-03-04T01:01:32.590Z,10.57
2019-03-04T01:04:38.190Z,10.57
2019-03-04T01:07:42.848Z,10.55
2019-03-04T01:10:47.369Z,10.48
2019-03-04T01:13:52.014Z,10.44
2019-03-04T01:16:56.511Z,10.32
2019-03-04T01:20:00.840Z,10.41
2019-03-04T01:23:08.160Z,10.54
2019-03-04T01:26:12.573Z,10.42
2019-03-04T01:29:16.896Z,10.56
2019-03-04T01:32:21.369Z,10.54
2019-03-04T01:35:25.689Z,10.61
2019-03-04T01:38:36.219Z,10.59
2019-03-04T01:41:40.763Z,10.47
2019-03-04T01:44:45.105Z,10.41
2019-03-04T01:47:51.386Z,10.39
2019-03-04T01:50:55.668Z,10.43
2019-03-04T01:53:59.962Z,10.49
2019-03-04T01:57:05.990Z,10.48
2019-03-04T02:00:13.792Z,10.46
2019-03-04T02:03:18.193Z,10.54
2019-03-04T02:06:22.531Z,10.39
2019-03-04T02:09:27.139Z,10.47
2019-03-04T02:12:31.615Z,10.50
2019-03-04T02:15:35.985Z,10.41
2019-03-04T02:18:40.406Z,10.53
2019-03-04T02:21:44.897Z,10.52
2019-03-04T02:24:49.330Z,10.40
2019-03-04T02:27:55.096Z,10.46
2019-03-04T02:30:59.510Z,10.35
2019-03-04T02:34:06.332Z,10.46
2019-03-04T02:37:10.736Z,10.39
2019-03-04T02:40:15.109Z,10.30
2019-03-04T02:43:19.631Z,10.25
2019-03-04T02:46:24.101Z,10.42
2019-03-04T02:49:28.545Z,10.43
2019-03-04T02:52:32.936Z,10.51
2019-03-04T02:55:39.291Z,10.43
2019-03-04T02:58:43.719Z,10.45
2019-03-04T03:01:48.094Z,10.41
2019-03-04T03:04:52.543Z,10.44
2019-03-04T03:07:57.025Z,10.44
2019-03-04T03:11:01.505Z,10.32
2019-03-04T03:14:06.024Z,10.41
2019-03-04T03:17:10.587Z,10.47
2019-03-04T03:20:15.066Z,10.51
2019-03-04T03:23:19.586Z,10.57
2019-03-04T03:26:24.081Z,10.58
2019-03-04T03:29:28.446Z,10.45
2019-03-04T03:32:32.881Z,10.51
2019-03-04T03:35:37.424Z,10.46
2019-03-04T03:38:41.761Z,10.45
2019-03-04T03:41:46.399Z,10.47
2019-03-04T03:44:50.744Z,10.49
2019-03-04T03:47:55.170Z,10.49
2019-03-04T03:50:59.598Z,10.57
2019-03-04T03:54:03.918Z,10.50
2019-03-04T03:57:08.459Z,10.59
2019-03-04T04:00:15.488Z,10.49
2019-03-04T04:03:19.960Z,10.43
2019-03-04T04:06:24.405Z,10.40
2019-03-04T04:09:28.800Z,10.62
2019-03-04T04:12:36.229Z,10.40
2019-03-04T04:15:40.711Z,10.43
2019-03-04T04:18:45.129Z,10.48
2019-03-04T04:21:49.675Z,10.36
2019-03-04T04:24:54.463Z,10.38
2019-03-04T04:27:59.009Z,10.36
2019-03-04T04:31:03.756Z,10.40
2019-03-04T04:34:09.594Z,10.33
2019-03-04T04:37:13.879Z,10.33
2019-03-04T04:40:18.371Z,10.20
2019-03-04T04:43:22.851Z,10.10
2019-03-04T04:46:52.421Z,10.12
2019-03-04T04:49:57.049Z,10.22
2019-03-04T04:53:01.429Z,10.07
2019-03-04T04:56:05.754Z,10.01
2019-03-04T04:59:10.251Z,10.09
2019-03-04T05:02:14.987Z,10.22
2019-03-04T05:05:19.424Z,10.21
2019-03-04T05:08:24.113Z,10.26
2019-03-04T05:11:28.524Z,10.22
2019-03-04T05:14:35.177Z,10.38
2019-03-04T05:17:40.004Z,10.42
2019-03-04T05:20:58.247Z,10.38
2019-03-04T05:23:53.886Z,10.39
2019-03-04T05:26:58.743Z,10.32
2019-03-04T05:30:03.203Z,10.17
2019-03-04T05:33:07.748Z,10.22
2019-03-04T05:36:12.117Z,10.33
2019-03-04T05:39:16.510Z,10.24
2019-03-04T05:42:20.850Z,10.20
2019-03-04T05:45:34.242Z,10.14
2019-03-04T05:48:38.566Z,10.27
2019-03-04T05:51:43.144Z,10.23
2019-03-04T05:54:47.613Z,10.33
2019-03-04T05:57:52.073Z,10.33
2019-03-04T06:01:16.276Z,10.22
2019-03-04T06:04:23.303Z,10.22
2019-03-04T06:07:58.683Z,10.26
2019-03-04T06:11:03.026Z,10.24
2019-03-04T06:14:08.332Z,10.43
2019-03-04T06:17:12.618Z,10.41
2019-03-04T06:20:17.947Z,10.32
2019-03-04T06:23:22.238Z,10.30
2019-03-04T06:26:26.560Z,10.36
2019-03-04T06:29:30.926Z,10.53
2019-03-04T06:32:35.404Z,10.60
2019-03-04T06:35:40.002Z,10.58
2019-03-04T06:38:44.628Z,10.42
2019-03-04T06:41:48.965Z,10.48
2019-03-04T06:44:53.305Z,10.65
2019-03-04T06:47:57.603Z,10.57
2019-03-04T06:51:02.751Z,10.80
2019-03-04T06:54:20.895Z,10.80
2019-03-04T06:57:32.005Z,10.91
2019-03-04T07:00:51.124Z,10.89
2019-03-04T07:04:09.820Z,11.01
2019-03-04T07:07:14.330Z,10.93
2019-03-04T07:10:18.678Z,10.93
2019-03-04T07:13:23.074Z,10.96
2019-03-04T07:16:27.649Z,11.16
2019-03-04T07:19:34.278Z,11.20
2019-03-04T07:22:38.555Z,11.20
2019-03-04T07:25:42.863Z,11.21
2019-03-04T07:28:47.191Z,11.25
2019-03-04T07:31:51.561Z,11.33
2019-03-04T07:34:56.088Z,11.34
2019-03-04T07:38:28.411Z,11.36
2019-03-04T07:41:40.818Z,11.27
2019-03-04T07:44:48.072Z,10.50
2019-03-04T07:47:52.456Z,9.43
2019-03-04T07:50:58.577Z,8.77
2019-03-04T07:54:02.923Z,8.33
2019-03-04T07:57:07.247Z,8.23
2019-03-04T08:00:12.325Z,8.12
2019-03-04T08:03:16.742Z,8.10
2019-03-04T08:06:21.147Z,8.10
2019-03-04T08:10:02.903Z,8.13
2019-03-04T08:13:17.951Z,8.27
2019-03-04T08:16:22.438Z,8.42
2019-03-04T08:19:26.838Z,8.48
2019-03-04T08:22:31.259Z,8.48
2019-03-04T08:25:35.870Z,8.48
2019-03-04T08:28:40.312Z,8.69
2019-03-04T08:31:44.719Z,8.62
2019-03-04T08:34:49.089Z,8.66
2019-03-04T08:37:53.433Z,8.74
2019-03-04T08:40:58.103Z,8.76
2019-03-04T08:44:02.586Z,8.63
2019-03-04T08:47:06.963Z,8.77
2019-03-04T08:50:12.095Z,8.55
2019-03-04T08:53:16.405Z,8.65
2019-03-04T08:56:20.770Z,8.63
2019-03-04T08:59:25.157Z,8.64
2019-03-04T09:02:29.519Z,8.60
2019-03-04T09:05:34.169Z,8.71
2019-03-04T09:08:38.543Z,8.72
2019-03-04T09:11:42.893Z,8.68
2019-03-04T09:14:51.648Z,8.59
2019-03-04T09:17:55.992Z,8.57
2019-03-04T09:21:01.575Z,8.33
2019-03-04T09:24:05.918Z,8.36
2019-03-04T09:27:10.298Z,8.27
2019-03-04T09:30:14.998Z,8.21
2019-03-04T09:33:19.298Z,8.15
2019-03-04T09:36:23.663Z,8.31
2019-03-04T09:39:27.993Z,8.21
2019-03-04T09:42:32.707Z,8.22
2019-03-04T09:45:39.173Z,8.18
2019-03-04T09:48:43.263Z,8.13
2019-03-04T09:51:47.564Z,8.02
2019-03-04T09:54:52.303Z,8.08
2019-03-04T09:57:59.801Z,8.05
2019-03-04T10:01:33.301Z,7.72
2019-03-04T10:05:20.834Z,7.60
2019-03-04T10:08:33.490Z,7.67
2019-03-04T10:12:15.393Z,7.72
2019-03-04T10:15:51.794Z,7.59
2019-03-04T10:19:49.813Z,7.75
2019-03-04T10:23:07.676Z,7.87
2019-03-04T10:27:14.025Z,7.89
2019-03-04T10:31:01.369Z,7.80
2019-03-04T10:34:47.172Z,7.82
2019-03-04T10:38:42.955Z,8.09
2019-03-04T10:42:43.293Z,7.98
2019-03-04T10:46:19.708Z,8.37
2019-03-04T10:49:25.121Z,8.54
2019-03-04T10:52:29.612Z,8.32
2019-03-04T10:55:41.494Z,8.18
2019-03-04T10:58:40.157Z,8.15
2019-03-04T11:01:44.561Z,8.04
2019-03-04T11:04:48.900Z,8.05
2019-03-04T11:07:53.320Z,7.71
2019-03-04T11:10:57.664Z,7.65
2019-03-04T11:14:02.086Z,7.51
2019-03-04T11:17:06.524Z,7.71
2019-03-04T11:20:10.885Z,7.89
2019-03-04T11:23:15.352Z,7.54
2019-03-04T11:26:19.868Z,7.42
2019-03-04T11:29:24.210Z,7.27
2019-03-04T11:32:28.826Z,7.19
2019-03-04T11:35:35.015Z,7.26
2019-03-04T11:38:41.852Z,7.34
2019-03-04T11:41:48.666Z,7.23
2019-03-04T11:44:53.101Z,7.27
2019-03-04T11:47:57.693Z,6.91
2019-03-04T11:51:02.316Z,6.89
2019-03-04T11:54:06.832Z,6.78
2019-03-04T11:57:13.804Z,6.77
2019-03-04T12:00:23.436Z,6.66
2019-03-04T12:03:27.816Z,6.68
2019-03-04T12:06:32.161Z,6.68
2019-03-04T12:09:36.486Z,6.86
2019-03-04T12:12:40.958Z,6.76
2019-03-04T12:15:45.512Z,6.83
2019-03-04T12:18:49.924Z,6.90
2019-03-04T12:21:54.357Z,6.77
2019-03-04T12:24:58.704Z,6.84
2019-03-04T12:28:03.061Z,6.57
2019-03-04T12:31:07.561Z,6.67
2019-03-04T12:34:13.547Z,6.59
2019-03-04T12:37:17.939Z,6.59
2019-03-04T12:40:22.456Z,6.71
2019-03-04T12:43:26.768Z,6.52
2019-03-04T12:46:33.850Z,6.46
2019-03-04T12:49:38.122Z,6.52
2019-03-04T12:52:42.590Z,6.74
2019-03-04T12:55:48.318Z,6.74
2019-03-04T12:58:52.702Z,6.72
2019-03-04T13:01:58.110Z,6.79
2019-03-04T13:05:02.392Z,6.91
2019-03-04T13:08:09.355Z,7.03
2019-03-04T13:11:13.908Z,7.29
2019-03-04T13:14:18.228Z,7.48
2019-03-04T13:17:22.765Z,7.23
2019-03-04T13:20:27.131Z,7.45
2019-03-04T13:23:31.710Z,7.28
2019-03-04T13:26:36.046Z,7.24
2019-03-04T13:29:40.350Z,7.33
2019-03-04T13:32:46.206Z,7.16
2019-03-04T13:35:50.674Z,7.31
2019-03-04T13:38:55.155Z,7.28
2019-03-04T13:42:01.673Z,7.37
2019-03-04T13:45:08.217Z,7.34
2019-03-04T13:48:12.522Z,7.34
2019-03-04T13:51:16.931Z,7.24
2019-03-04T13:54:21.401Z,7.29
2019-03-04T13:57:25.722Z,7.25
2019-03-04T14:00:32.071Z,7.28
2019-03-04T14:03:36.607Z,7.21
2019-03-04T14:06:40.894Z,7.17
2019-03-04T14:09:48.463Z,7.19
2019-03-04T14:12:52.864Z,7.10
2019-03-04T14:15:57.384Z,7.05
2019-03-04T14:19:01.704Z,7.01
2019-03-04T14:22:06.015Z,6.85
2019-03-04T14:25:12.490Z,6.96
2019-03-04T14:28:16.987Z,7.19
2019-03-04T14:31:21.540Z,7.00
2019-03-04T14:34:25.904Z,6.89
2019-03-04T14:37:30.213Z,6.90
2019-03-04T14:40:34.557Z,7.02
2019-03-04T14:43:39.042Z,7.00
2019-03-04T14:46:45.877Z,6.84
2019-03-04T14:49:50.201Z,6.79
2019-03-04T14:52:54.527Z,6.64
2019-03-04T14:56:01.137Z,6.56
2019-03-04T14:59:10.983Z,6.47
2019-03-04T15:02:11.481Z,6.43
2019-03-04T15:05:15.904Z,6.37
2019-03-04T15:08:20.268Z,6.42
2019-03-04T15:11:24.538Z,6.45
2019-03-04T15:14:28.944Z,6.41
2019-03-04T15:17:33.415Z,6.47
2019-03-04T15:20:38.309Z,6.34
2019-03-04T15:23:42.631Z,6.31
2019-03-04T15:26:47.023Z,6.19
2019-03-04T15:29:51.633Z,6.26
2019-03-04T15:32:58.660Z,6.13
2019-03-04T15:36:03.161Z,6.10
2019-03-04T15:39:22.618Z,6.04
2019-03-04T15:42:21.299Z,6.00
2019-03-04T15:45:25.990Z,5.93
2019-03-04T15:48:30.601Z,5.80
2019-03-04T15:51:34.976Z,5.75
2019-03-04T15:54:40.296Z,5.65
2019-03-04T15:57:44.631Z,5.56
2019-03-04T16:00:52.130Z,5.50
2019-03-04T16:03:57.752Z,5.55
2019-03-04T16:07:02.214Z,5.57
2019-03-04T16:10:08.631Z,5.61
2019-03-04T16:13:13.025Z,5.66
2019-03-04T16:16:20.151Z,5.72
2019-03-04T16:19:24.534Z,5.74
2019-03-04T16:22:28.878Z,5.79
2019-03-04T16:25:35.039Z,5.86
2019-03-04T16:28:39.574Z,5.88
2019-03-04T16:31:44.030Z,5.86
2019-03-04T16:34:48.342Z,5.88
2019-03-04T16:37:52.704Z,5.94
2019-03-04T16:40:57.030Z,5.98
2019-03-04T16:44:01.567Z,6.07
2019-03-04T16:47:06.317Z,6.14
2019-03-04T16:50:12.202Z,6.19
2019-03-04T16:53:17.319Z,6.19
2019-03-04T16:56:21.852Z,6.17
2019-03-04T16:59:26.162Z,6.12
2019-03-04T17:02:30.537Z,6.06
2019-03-04T17:05:34.830Z,6.06
2019-03-04T17:08:39.151Z,6.02
2019-03-04T17:11:43.808Z,6.04
2019-03-04T17:14:48.306Z,6.04
2019-03-04T17:17:52.655Z,6.04
2019-03-04T17:20:57.095Z,6.01
2019-03-04T17:24:02.014Z,6.05
2019-03-04T17:27:06.644Z,6.10
2019-03-04T17:30:12.951Z,6.07
2019-03-04T17:33:17.530Z,6.11
2019-03-04T17:36:21.976Z,6.13
2019-03-04T17:39:26.414Z,6.18
2019-03-04T17:42:30.947Z,6.15
2019-03-04T17:45:35.350Z,6.19
2019-03-04T17:48:39.789Z,6.11
2019-03-04T17:51:44.119Z,6.14
2019-03-04T17:54:48.671Z,6.10
2019-03-04T17:57:53.011Z,6.10
2019-03-04T18:00:57.846Z,6.20
2019-03-04T18:04:02.419Z,6.19
2019-03-04T18:07:06.905Z,6.17
2019-03-04T18:10:13.911Z,6.16
2019-03-04T18:13:18.378Z,6.21
2019-03-04T18:16:22.759Z,6.29
2019-03-04T18:19:27.387Z,6.32
2019-03-04T18:22:31.896Z,6.29
2019-03-04T18:25:45.086Z,6.33
2019-03-04T18:29:12.751Z,6.35
2019-03-04T18:32:49.843Z,6.33
2019-03-04T18:36:31.907Z,6.32
2019-03-04T18:40:15.781Z,6.29
2019-03-04T18:44:04.094Z,6.29
2019-03-04T18:47:44.127Z,6.25
2019-03-04T18:50:48.543Z,6.29
2019-03-04T18:53:54.625Z,6.28
2019-03-04T18:56:59.043Z,6.34
2019-03-04T19:00:03.468Z,6.35
2019-03-04T19:03:07.804Z,6.47
2019-03-04T19:06:13.897Z,6.46
2019-03-04T19:09:21.498Z,6.47
2019-03-04T19:12:25.928Z,6.52
2019-03-04T19:15:30.633Z,6.55
2019-03-04T19:18:35.284Z,6.53
2019-03-04T19:21:39.648Z,6.52
2019-03-04T19:24:44.407Z,6.49
2019-03-04T19:27:48.974Z,6.48
2019-03-04T19:30:53.504Z,6.48
2019-03-04T19:33:58.109Z,6.47
2019-03-04T19:37:02.779Z,6.42
2019-03-04T19:40:07.758Z,6.34
2019-03-04T19:43:12.578Z,6.28
2019-03-04T19:46:17.335Z,6.25
2019-03-04T19:49:22.185Z,6.18
2019-03-04T19:52:28.060Z,6.22
2019-03-04T19:55:32.499Z,6.08
2019-03-04T19:58:37.061Z,6.14
2019-03-04T20:01:42.343Z,6.16
2019-03-04T20:04:47.293Z,6.18
2019-03-04T20:07:52.787Z,6.28
2019-03-04T20:10:57.789Z,6.28
2019-03-04T20:14:02.857Z,6.35
2019-03-04T20:17:11.074Z,6.39
2019-03-04T20:20:16.595Z,6.28
2019-03-04T20:23:29.755Z,6.21
2019-03-04T20:26:34.649Z,6.18
2019-03-04T20:29:39.389Z,6.15
2019-03-04T20:32:44.209Z,6.17
2019-03-04T20:35:50.613Z,6.13
2019-03-04T20:38:55.622Z,6.06
2019-03-04T20:42:00.815Z,6.05
2019-03-04T20:45:07.037Z,6.09
2019-03-04T20:48:11.875Z,6.12
2019-03-04T20:51:16.286Z,6.17
2019-03-04T20:54:20.813Z,6.23
2019-03-04T20:57:25.654Z,6.26
2019-03-04T21:00:33.574Z,6.35
2019-03-04T21:03:38.761Z,6.38
2019-03-04T21:06:43.386Z,6.46
2019-03-04T21:09:47.992Z,6.43
2019-03-04T21:12:57.156Z,6.35
2019-03-04T21:16:04.890Z,6.31
2019-03-04T21:19:09.426Z,6.21
2019-03-04T21:22:13.950Z,6.20
2019-03-04T21:25:40.747Z,6.22
2019-03-04T21:29:30.629Z,6.27
2019-03-04T21:32:47.476Z,6.33
2019-03-04T21:36:44.013Z,6.23
2019-03-04T21:39:48.711Z,6.28
2019-03-04T21:43:10.248Z,6.24
2019-03-04T21:46:44.178Z,6.22
2019-03-04T21:49:51.516Z,6.25
2019-03-04T21:53:10.137Z,6.26
2019-03-04T21:56:42.532Z,6.25
2019-03-04T21:59:46.940Z,6.29
2019-03-04T22:03:23.387Z,6.29
2019-03-04T22:06:27.724Z,6.32
2019-03-04T22:09:32.014Z,6.35
2019-03-04T22:12:36.328Z,6.37
2019-03-04T22:15:41.562Z,6.38
2019-03-04T22:18:46.042Z,6.50
2019-03-04T22:21:50.515Z,6.49
2019-03-04T22:24:54.959Z,6.48
2019-03-04T22:27:59.540Z,6.46
2019-03-04T22:31:08.363Z,6.41
2019-03-04T22:34:12.729Z,6.49
2019-03-04T22:37:17.047Z,6.44
2019-03-04T22:40:21.677Z,6.40
2019-03-04T22:43:26.283Z,6.41
2019-03-04T22:46:30.605Z,6.44
2019-03-04T22:49:34.962Z,6.52
2019-03-04T22:52:39.490Z,6.50
2019-03-04T22:55:45.481Z,6.47
2019-03-04T22:58:51.644Z,6.53
2019-03-04T23:02:03.606Z,6.54
2019-03-04T23:05:15.613Z,6.56
2019-03-04T23:08:20.047Z,6.62
2019-03-04T23:11:27.450Z,6.62
2019-03-04T23:14:31.838Z,6.68
2019-03-04T23:17:36.723Z,6.68
2019-03-04T23:20:41.603Z,6.74
2019-03-04T23:23:46.744Z,6.70
2019-03-04T23:26:51.371Z,6.70
2019-03-04T23:29:56.378Z,6.73
2019-03-04T23:33:00.728Z,6.68
2019-03-04T23:36:05.283Z,6.71
2019-03-04T23:39:09.999Z,6.73
2019-03-04T23:42:14.320Z,6.71
2019-03-04T23:45:18.838Z,6.64
2019-03-04T23:48:23.392Z,6.58
2019-03-04T23:51:27.756Z,6.54
2019-03-04T23:54:32.281Z,6.51
2019-03-04T23:57:36.694Z,6.54
